Time;durP1;ratioP1;P1;durP2;ratioP2;P2;SDS_P1;SDS_P2;PMS_P1;PMS_P2;Temp;Humidity;BMP_temperature;BMP_pressure;BME280_temperature;BME280_humidity;BME280_pressure;Samples;Min_cycle;Max_cycle;Signal;HPM_P1;HPM_P2
2023/11/08 05:30:09;;;;;;;0.10;0.10;;;10.00;87.40;;;;;;6167603;22;20020;31
2023/11/08 05:32:39;;;;;;;0.10;0.10;;;10.00;87.30;;;;;;4945659;28;20046;-73
2023/11/08 05:35:05;;;;;;;0.10;0.10;;;10.00;87.20;;;;;;4958040;29;20027;-73
2023/11/08 05:37:31;;;;;;;0.10;0.10;;;9.90;87.30;;;;;;4942679;29;20028;-73
2023/11/08 05:39:57;;;;;;;0.10;0.10;;;10.00;87.20;;;;;;4946436;28;20027;-73
2023/11/08 05:42:23;;;;;;;0.10;0.10;;;10.00;87.10;;;;;;4956832;28;20058;-73
2023/11/08 05:44:54;;;;;;;0.00;0.00;;;9.90;87.20;;;;;;4958825;29;20547;-73
2023/11/08 05:47:20;;;;;;;0.10;0.10;;;9.90;87.20;;;;;;4941179;29;20082;-73
2023/11/08 05:49:45;;;;;;;0.10;0.10;;;9.90;87.20;;;;;;4958408;28;20035;-73
2023/11/08 05:52:11;;;;;;;0.10;0.10;;;10.00;87.30;;;;;;4958356;29;20027;-73
2023/11/08 05:54:37;;;;;;;0.10;0.10;;;10.00;87.20;;;;;;4958357;29;20031;-75
2023/11/08 05:57:03;;;;;;;0.10;0.10;;;10.00;87.20;;;;;;4955940;29;20024;-74
2023/11/08 05:59:29;;;;;;;0.10;0.10;;;10.00;87.20;;;;;;4957504;28;20024;-76
2023/11/08 06:01:55;;;;;;;0.10;0.10;;;10.00;87.10;;;;;;4942102;29;20023;-77
2023/11/08 06:04:21;;;;;;;0.10;0.10;;;10.00;87.00;;;;;;4957300;29;20031;-89
2023/11/08 06:06:48;;;;;;;0.10;0.10;;;10.10;86.90;;;;;;4958284;28;20031;-77
2023/11/08 06:09:14;;;;;;;0.10;0.10;;;10.20;87.00;;;;;;4958144;29;20035;-78
2023/11/08 06:11:41;;;;;;;0.10;0.10;;;10.20;87.00;;;;;;4956629;28;20031;-79
2023/11/08 06:14:06;;;;;;;0.10;0.10;;;10.20;86.80;;;;;;4953080;29;20170;-80
2023/11/08 06:16:32;;;;;;;0.10;0.10;;;10.20;86.60;;;;;;4953676;29;20058;-81
2023/11/08 06:18:58;;;;;;;0.10;0.10;;;10.30;86.70;;;;;;4939775;28;20027;-79
2023/11/08 06:21:23;;;;;;;0.10;0.10;;;10.30;86.70;;;;;;4958096;29;20027;-79
2023/11/08 06:23:49;;;;;;;0.10;0.10;;;10.20;86.70;;;;;;4957798;29;20070;-78
2023/11/08 06:26:15;;;;;;;0.10;0.10;;;10.30;86.70;;;;;;4958065;29;20087;-78
2023/11/08 06:28:41;;;;;;;0.10;0.10;;;10.30;86.70;;;;;;4956934;28;20033;-79
2023/11/08 06:31:07;;;;;;;0.10;0.10;;;10.30;86.70;;;;;;4957388;29;20554;-78
2023/11/08 06:33:32;;;;;;;0.10;0.10;;;10.30;86.70;;;;;;4957687;29;20091;-77
2023/11/08 06:36:00;;;;;;;0.10;0.10;;;10.20;86.70;;;;;;4957710;28;20027;-77
2023/11/08 06:38:30;;;;;;;0.10;0.10;;;10.20;86.70;;;;;;4957912;29;20102;-78
2023/11/08 06:40:56;;;;;;;0.10;0.10;;;10.20;86.70;;;;;;4940701;29;20027;-77
2023/11/08 06:43:22;;;;;;;0.10;0.10;;;10.20;86.90;;;;;;4951517;29;20023;-78
2023/11/08 06:45:49;;;;;;;0.10;0.10;;;10.20;86.90;;;;;;4955702;28;20034;-78
2023/11/08 06:48:15;;;;;;;0.10;0.10;;;10.20;87.20;;;;;;4943953;29;20121;-77
2023/11/08 06:50:40;;;;;;;0.10;0.10;;;10.20;87.20;;;;;;4957716;29;20019;-78
2023/11/08 06:53:06;;;;;;;0.10;0.10;;;10.20;87.20;;;;;;4958154;29;20028;-77
2023/11/08 06:55:33;;;;;;;0.10;0.10;;;10.20;87.30;;;;;;4958280;28;20023;-78
2023/11/08 06:58:00;;;;;;;0.10;0.10;;;10.30;87.30;;;;;;4958177;28;20417;-78
2023/11/08 07:00:26;;;;;;;0.00;0.00;;;10.30;87.30;;;;;;4958579;29;20024;-77
2023/11/08 07:02:52;;;;;;;0.10;0.10;;;10.40;87.30;;;;;;4961194;28;20496;-77
2023/11/08 07:05:18;;;;;;;0.10;0.10;;;10.50;87.30;;;;;;4962020;29;20027;-77
2023/11/08 07:07:44;;;;;;;0.10;0.10;;;10.50;87.40;;;;;;4961480;29;20081;-78
2023/11/08 07:10:11;;;;;;;0.10;0.10;;;10.50;87.40;;;;;;4961646;28;20126;-78
2023/11/08 07:12:40;;;;;;;0.10;0.10;;;10.50;87.50;;;;;;4943446;29;20041;-78
2023/11/08 07:15:07;;;;;;;0.10;0.10;;;10.60;87.60;;;;;;4961599;28;20371;-77
2023/11/08 07:17:34;;;;;;;0.10;0.10;;;10.60;87.70;;;;;;4943896;29;20094;-78
2023/11/08 07:20:00;;;;;;;0.10;0.10;;;10.60;87.70;;;;;;4960758;28;20031;-78
2023/11/08 07:22:25;;;;;;;0.00;0.00;;;10.60;87.70;;;;;;4961604;29;20035;-78
2023/11/08 07:24:51;;;;;;;0.10;0.10;;;10.70;87.50;;;;;;4961420;29;20692;-78
2023/11/08 07:27:17;;;;;;;0.10;0.10;;;10.60;87.60;;;;;;4961149;28;20489;-78
2023/11/08 07:29:45;;;;;;;0.10;0.10;;;10.70;87.50;;;;;;4943930;29;20105;-78
2023/11/08 07:32:13;;;;;;;0.10;0.10;;;10.70;87.50;;;;;;4961116;28;20058;-78
2023/11/08 07:34:40;;;;;;;0.10;0.10;;;10.80;87.60;;;;;;4961267;29;20454;-79
2023/11/08 07:37:06;;;;;;;0.10;0.10;;;10.80;87.50;;;;;;4961151;28;20015;-77
2023/11/08 07:39:31;;;;;;;0.10;0.10;;;10.80;87.50;;;;;;4960899;29;20054;-77
2023/11/08 07:41:57;;;;;;;0.10;0.10;;;10.80;87.50;;;;;;4960963;28;20042;-77
2023/11/08 07:44:22;;;;;;;0.10;0.10;;;10.80;87.60;;;;;;4961035;29;20114;-77
2023/11/08 07:46:48;;;;;;;0.10;0.10;;;10.80;87.60;;;;;;4960916;29;20038;-79
2023/11/08 07:49:15;;;;;;;0.10;0.10;;;10.80;87.60;;;;;;4960751;29;20035;-77
2023/11/08 07:51:43;;;;;;;0.10;0.10;;;10.80;87.70;;;;;;4961004;28;20027;-77
2023/11/08 07:54:10;;;;;;;0.10;0.10;;;10.90;87.70;;;;;;4960825;29;20030;-77
2023/11/08 07:56:36;;;;;;;0.10;0.10;;;10.80;87.70;;;;;;4960451;28;20024;-78
2023/11/08 07:59:03;;;;;;;0.10;0.10;;;10.80;87.60;;;;;;4953627;29;20368;-78
2023/11/08 08:01:29;;;;;;;0.10;0.10;;;10.90;87.60;;;;;;4956235;29;20399;-78
2023/11/08 08:03:56;;;;;;;0.10;0.10;;;10.90;87.60;;;;;;4957983;28;20033;-78
2023/11/08 08:06:23;;;;;;;0.10;0.10;;;11.00;87.50;;;;;;4960616;29;20027;-78
2023/11/08 08:08:49;;;;;;;0.10;0.10;;;11.00;87.50;;;;;;4960420;28;20035;-78
2023/11/08 08:11:15;;;;;;;0.10;0.10;;;11.00;87.40;;;;;;4959351;29;20038;-78
2023/11/08 08:13:41;;;;;;;0.10;0.10;;;11.10;87.50;;;;;;4959033;28;20482;-78
2023/11/08 08:16:07;;;;;;;0.10;0.10;;;11.10;87.40;;;;;;4960246;29;20023;-78
2023/11/08 08:18:35;;;;;;;0.10;0.10;;;11.20;87.30;;;;;;4960343;29;20027;-77
2023/11/08 08:21:01;;;;;;;0.10;0.10;;;11.20;87.30;;;;;;4960521;28;20471;-78
2023/11/08 08:23:27;;;;;;;0.10;0.10;;;11.20;87.30;;;;;;4942971;29;20042;-78
2023/11/08 08:25:54;;;;;;;0.10;0.10;;;11.20;87.20;;;;;;4959946;28;20035;-78
2023/11/08 08:28:19;;;;;;;0.10;0.10;;;11.30;87.30;;;;;;4955356;29;20028;-77
2023/11/08 08:30:45;;;;;;;0.10;0.10;;;11.40;87.20;;;;;;4940798;29;20056;-77
2023/11/08 08:33:10;;;;;;;0.10;0.10;;;11.50;87.10;;;;;;4955613;28;20528;-77
2023/11/08 08:35:36;;;;;;;0.10;0.10;;;11.50;87.00;;;;;;4959770;28;20031;-78
2023/11/08 08:38:02;;;;;;;0.10;0.10;;;11.60;86.90;;;;;;4943770;29;20030;-78
2023/11/08 08:40:30;;;;;;;0.10;0.10;;;11.60;86.90;;;;;;4955514;28;20102;-78
2023/11/08 08:42:55;;;;;;;0.10;0.10;;;11.70;86.90;;;;;;4959973;28;20019;-78
2023/11/08 08:45:21;;;;;;;0.10;0.10;;;11.70;86.70;;;;;;4959026;28;20102;-78
2023/11/08 08:47:49;;;;;;;0.10;0.10;;;11.80;86.70;;;;;;4960226;28;20023;-78
2023/11/08 08:50:14;;;;;;;0.10;0.10;;;11.80;86.60;;;;;;4959973;29;20086;-77
2023/11/08 08:52:45;;;;;;;0.10;0.10;;;11.80;86.60;;;;;;4942413;29;20095;-78
2023/11/08 08:55:13;;;;;;;0.10;0.10;;;11.90;86.60;;;;;;4942646;29;20027;-77
2023/11/08 08:57:41;;;;;;;0.10;0.10;;;11.90;86.40;;;;;;4959199;29;20032;-78
2023/11/08 09:00:07;;;;;;;0.10;0.10;;;11.90;86.50;;;;;;4959854;29;20113;-78
2023/11/08 09:02:33;;;;;;;0.10;0.10;;;11.90;86.70;;;;;;4959599;29;20028;-77
2023/11/08 09:04:58;;;;;;;0.10;0.10;;;11.90;86.70;;;;;;4959555;28;20492;-78
2023/11/08 09:07:24;;;;;;;0.10;0.10;;;11.90;86.80;;;;;;4959682;29;20036;-77
2023/11/08 09:09:50;;;;;;;0.10;0.10;;;12.00;86.80;;;;;;4959565;29;20504;-77
2023/11/08 09:12:16;;;;;;;0.10;0.10;;;12.00;86.80;;;;;;4959353;28;20031;-78
2023/11/08 09:14:41;;;;;;;0.10;0.10;;;12.00;86.90;;;;;;4957952;29;20027;-78
2023/11/08 09:17:08;;;;;;;0.10;0.10;;;12.20;86.80;;;;;;4959095;29;20038;-78
2023/11/08 09:19:33;;;;;;;0.10;0.10;;;12.20;86.80;;;;;;4958788;28;20038;-78
2023/11/08 09:21:59;;;;;;;0.10;0.10;;;12.20;86.90;;;;;;4941174;29;20117;-78
2023/11/08 09:24:25;;;;;;;0.10;0.10;;;12.30;87.00;;;;;;4957798;29;20023;-78
2023/11/08 09:26:50;;;;;;;0.10;0.10;;;12.40;86.80;;;;;;4958654;29;20027;-77
2023/11/08 09:29:18;;;;;;;0.10;0.10;;;12.40;86.90;;;;;;4958040;28;20035;-78
2023/11/08 09:31:47;;;;;;;0.10;0.10;;;12.40;87.00;;;;;;4939658;29;20075;-78
2023/11/08 09:34:12;;;;;;;0.52;0.10;;;12.50;86.90;;;;;;4951387;28;20055;-79
2023/11/08 09:36:38;;;;;;;0.10;0.10;;;12.60;86.90;;;;;;4959179;29;20034;-78
2023/11/08 09:39:05;;;;;;;0.10;0.10;;;12.60;87.00;;;;;;4959399;29;20114;-78
2023/11/08 09:41:30;;;;;;;0.10;0.10;;;12.70;86.90;;;;;;4944744;29;20054;-77
2023/11/08 09:43:56;;;;;;;0.10;0.10;;;12.70;86.90;;;;;;4959062;28;20042;-78
2023/11/08 09:46:23;;;;;;;0.10;0.10;;;12.70;86.90;;;;;;4941788;29;20055;-78
2023/11/08 09:48:49;;;;;;;0.10;0.10;;;12.70;87.00;;;;;;4959159;29;20027;-78
2023/11/08 09:51:15;;;;;;;0.10;0.10;;;12.60;87.10;;;;;;4958795;29;20652;-78
2023/11/08 09:53:43;;;;;;;0.10;0.10;;;12.60;87.30;;;;;;4957189;28;20074;-77
2023/11/08 09:56:12;;;;;;;0.10;0.10;;;12.70;87.30;;;;;;4941316;29;20096;-78
2023/11/08 09:58:44;;;;;;;0.10;0.10;;;12.70;87.30;;;;;;4954239;29;20082;-77
2023/11/08 10:01:15;;;;;;;0.10;0.10;;;12.80;87.40;;;;;;4948652;28;20478;-78
2023/11/08 10:03:42;;;;;;;0.10;0.10;;;12.70;87.50;;;;;;4958763;29;20050;-77
2023/11/08 10:06:09;;;;;;;0.10;0.10;;;12.70;87.70;;;;;;4958670;29;20019;-77
2023/11/08 10:08:34;;;;;;;0.10;0.10;;;12.70;87.70;;;;;;4958736;29;20023;-77
2023/11/08 10:11:01;;;;;;;0.10;0.10;;;12.80;87.60;;;;;;4958587;28;20110;-78
2023/11/08 10:13:45;;;;;;;0.10;0.10;;;12.80;87.70;;;;;;4958612;29;20033;-77
2023/11/08 10:16:11;;;;;;;0.10;0.10;;;12.90;87.60;;;;;;4958414;29;20035;-77
2023/11/08 10:18:37;;;;;;;0.10;0.10;;;13.10;87.30;;;;;;4958653;28;20023;-78
2023/11/08 10:21:08;;;;;;;0.10;0.10;;;13.20;87.00;;;;;;4958623;29;20030;-78
2023/11/08 10:23:36;;;;;;;0.10;0.10;;;13.20;87.00;;;;;;4958608;28;20159;-78
2023/11/08 10:26:19;;;;;;;0.10;0.10;;;13.20;87.00;;;;;;4941214;29;20039;-78
2023/11/08 10:29:03;;;;;;;0.10;0.10;;;13.20;86.90;;;;;;4958565;29;20027;-78
2023/11/08 10:31:34;;;;;;;0.10;0.10;;;13.20;86.90;;;;;;4958126;29;20054;-78
2023/11/08 10:34:07;;;;;;;0.10;0.10;;;13.30;86.90;;;;;;4960495;28;20054;-78
2023/11/08 10:36:34;;;;;;;0.10;0.10;;;13.20;86.80;;;;;;4953749;28;20027;-77
2023/11/08 10:39:01;;;;;;;0.10;0.10;;;13.20;86.90;;;;;;4942961;29;20397;-78
2023/11/08 10:41:28;;;;;;;0.10;0.10;;;13.20;87.00;;;;;;4960870;29;20034;-78
2023/11/08 10:44:07;;;;;;;0.10;0.10;;;13.20;87.00;;;;;;4962465;29;20027;-77
2023/11/08 10:46:33;;;;;;;0.10;0.10;;;13.20;87.10;;;;;;4942811;29;20553;-77
2023/11/08 10:49:00;;;;;;;0.10;0.10;;;13.30;86.90;;;;;;4942830;29;20038;-78
2023/11/08 10:51:26;;;;;;;0.10;0.10;;;13.30;87.00;;;;;;4941457;29;20039;-77
2023/11/08 10:53:51;;;;;;;0.10;0.10;;;13.30;87.00;;;;;;4949619;28;20027;-78
2023/11/08 10:56:20;;;;;;;0.10;0.10;;;13.20;87.20;;;;;;4952905;29;20039;-78
2023/11/08 10:58:50;;;;;;;0.10;0.10;;;13.20;87.20;;;;;;4959966;29;20051;-78
2023/11/08 11:01:18;;;;;;;0.10;0.10;;;13.30;87.20;;;;;;4958765;28;20075;-79
2023/11/08 11:03:51;;;;;;;0.10;0.10;;;13.30;87.20;;;;;;4961172;29;20020;-77
2023/11/08 11:06:27;;;;;;;0.10;0.10;;;13.40;87.20;;;;;;4958891;28;20035;-77
2023/11/08 11:08:57;;;;;;;0.00;0.00;;;13.50;87.10;;;;;;4960961;29;20049;-81
2023/11/08 11:11:23;;;;;;;0.00;0.00;;;13.50;87.00;;;;;;4960511;28;20099;-78
2023/11/08 11:13:58;;;;;;;0.10;0.10;;;13.60;87.00;;;;;;4959383;29;20544;-80
2023/11/08 11:16:29;;;;;;;0.00;0.00;;;13.60;86.90;;;;;;4960669;29;20019;-76
2023/11/08 11:19:01;;;;;;;0.10;0.10;;;13.70;86.70;;;;;;4956319;28;20035;-76
2023/11/08 11:21:37;;;;;;;0.10;0.10;;;13.80;86.60;;;;;;4961309;29;20027;-77
2023/11/08 11:24:32;;;;;;;0.10;0.10;;;13.90;86.40;;;;;;4961598;29;20023;-76
2023/11/08 11:26:58;;;;;;;0.10;0.10;;;13.90;86.30;;;;;;4943137;29;20409;-76
2023/11/08 11:29:26;;;;;;;0.10;0.10;;;13.90;86.30;;;;;;4961364;29;20086;-75
2023/11/08 11:31:52;;;;;;;0.10;0.10;;;14.00;86.30;;;;;;4960859;29;20047;-75
2023/11/08 11:34:30;;;;;;;0.10;0.10;;;13.90;86.20;;;;;;4961126;29;20020;-75
2023/11/08 11:37:10;;;;;;;0.10;0.10;;;14.00;86.20;;;;;;4960817;28;20557;-76
2023/11/08 11:40:03;;;;;;;0.10;0.10;;;13.90;86.60;;;;;;4961201;29;20019;-76
2023/11/08 11:42:29;;;;;;;0.10;0.10;;;13.90;86.80;;;;;;4959345;29;20406;-77
2023/11/08 11:44:59;;;;;;;0.10;0.10;;;13.90;87.30;;;;;;4960627;28;20042;-77
2023/11/08 11:47:30;;;;;;;0.10;0.10;;;13.90;87.60;;;;;;4942475;29;20069;-77
2023/11/08 11:50:00;;;;;;;0.10;0.10;;;13.90;87.60;;;;;;4959523;29;20083;-76
2023/11/08 11:52:28;;;;;;;0.10;0.10;;;13.80;88.00;;;;;;4960822;28;20171;-76
2023/11/08 11:54:58;;;;;;;0.10;0.10;;;13.80;88.30;;;;;;4960946;29;20030;-76
2023/11/08 11:57:29;;;;;;;0.10;0.10;;;13.80;88.60;;;;;;4960139;28;20375;-77
2023/11/08 11:59:56;;;;;;;0.10;0.10;;;13.70;88.90;;;;;;4960920;29;20027;-76
2023/11/08 12:02:25;;;;;;;0.10;0.10;;;13.70;89.30;;;;;;4960540;28;20474;-76
2023/11/08 12:04:51;;;;;;;0.10;0.10;;;13.70;89.50;;;;;;4960708;29;20028;-78
2023/11/08 12:07:17;;;;;;;0.10;0.10;;;13.70;89.60;;;;;;4960495;28;20082;-77
2023/11/08 12:09:45;;;;;;;0.10;0.10;;;13.70;89.60;;;;;;4943310;28;20029;-77
2023/11/08 12:12:11;;;;;;;0.10;0.10;;;13.70;89.70;;;;;;4941354;29;20038;-77
2023/11/08 12:14:47;;;;;;;0.10;0.10;;;13.70;89.90;;;;;;4941171;29;20110;-77
2023/11/08 12:17:13;;;;;;;0.08;0.08;;;13.70;89.90;;;;;;4951486;29;20066;-77
2023/11/08 12:19:39;;;;;;;0.10;0.10;;;13.70;90.00;;;;;;4960530;28;20053;-77
2023/11/08 12:22:05;;;;;;;0.10;0.10;;;13.70;90.10;;;;;;4960468;29;20038;-77
2023/11/08 12:24:31;;;;;;;0.10;0.10;;;13.80;90.00;;;;;;4960132;28;20039;-77
2023/11/08 12:26:57;;;;;;;0.10;0.10;;;13.70;90.10;;;;;;4960043;29;20037;-77
2023/11/08 12:29:24;;;;;;;0.08;0.08;;;13.70;90.10;;;;;;4938870;29;20032;-76
2023/11/08 12:31:50;;;;;;;0.10;0.10;;;13.70;90.20;;;;;;4940918;29;20044;-77
2023/11/08 12:34:17;;;;;;;0.03;0.03;;;13.70;90.30;;;;;;4955501;28;20028;-78
2023/11/08 12:36:44;;;;;;;0.10;0.10;;;13.80;90.30;;;;;;4946284;28;20020;-78
2023/11/08 12:39:17;;;;;;;0.10;0.10;;;13.80;90.20;;;;;;4942888;29;20035;-78
2023/11/08 12:41:47;;;;;;;0.10;0.10;;;13.70;90.40;;;;;;4959831;29;20069;-78
2023/11/08 12:44:14;;;;;;;0.10;0.10;;;13.70;90.40;;;;;;4959935;28;20091;-78
2023/11/08 12:46:53;;;;;;;0.03;0.03;;;13.60;90.50;;;;;;4959975;29;20107;-78
2023/11/08 12:49:32;;;;;;;0.00;0.00;;;13.60;90.60;;;;;;4959635;28;20027;-77
2023/11/08 12:52:06;;;;;;;0.10;0.10;;;13.60;90.80;;;;;;4947551;28;20514;-78
2023/11/08 12:54:32;;;;;;;0.03;0.03;;;13.50;90.90;;;;;;4942295;29;20027;-77
2023/11/08 12:56:57;;;;;;;0.10;0.10;;;13.50;90.80;;;;;;4959134;28;20051;-78
2023/11/08 12:59:23;;;;;;;0.10;0.10;;;13.50;91.00;;;;;;4959510;28;20030;-78
2023/11/08 13:01:50;;;;;;;0.10;0.10;;;13.50;91.00;;;;;;4936628;29;20114;-78
2023/11/08 13:04:20;;;;;;;0.10;0.10;;;13.50;90.90;;;;;;4958892;28;20121;-77
2023/11/08 13:06:47;;;;;;;0.10;0.10;;;13.50;90.90;;;;;;4950392;28;20023;-78
2023/11/08 13:09:14;;;;;;;0.10;0.10;;;13.50;91.00;;;;;;4940088;29;20035;-77
2023/11/08 13:11:39;;;;;;;0.00;0.00;;;13.50;90.90;;;;;;4956034;29;20038;-78
2023/11/08 13:14:05;;;;;;;0.10;0.10;;;13.40;90.90;;;;;;4946224;28;20031;-78
2023/11/08 13:16:32;;;;;;;0.03;0.03;;;13.40;91.00;;;;;;4951701;29;20811;-78
2023/11/08 13:18:58;;;;;;;0.03;0.03;;;13.50;91.00;;;;;;4953672;29;20031;-77
2023/11/08 13:21:23;;;;;;;0.00;0.00;;;13.50;90.90;;;;;;4947316;28;20439;-78
2023/11/08 13:23:49;;;;;;;0.10;0.10;;;13.50;90.90;;;;;;4946570;28;20024;-78
2023/11/08 13:26:16;;;;;;;0.10;0.10;;;13.50;90.90;;;;;;4955394;28;20035;-78
2023/11/08 13:28:44;;;;;;;0.03;0.03;;;13.50;91.00;;;;;;4954778;28;20086;-78
2023/11/08 13:31:13;;;;;;;0.00;0.00;;;13.50;91.10;;;;;;4957227;29;20039;-78
2023/11/08 13:33:40;;;;;;;0.10;0.10;;;13.40;90.90;;;;;;4956428;29;20027;-78
2023/11/08 13:36:09;;;;;;;0.10;0.10;;;13.40;91.00;;;;;;4957410;29;20082;-78
2023/11/08 13:38:37;;;;;;;0.00;0.00;;;13.40;91.00;;;;;;4956756;28;20047;-78
2023/11/08 13:41:05;;;;;;;0.10;0.10;;;13.40;90.90;;;;;;4957724;29;20027;-77
2023/11/08 13:43:31;;;;;;;0.10;0.10;;;13.50;91.00;;;;;;4956734;28;20118;-77
2023/11/08 13:45:57;;;;;;;0.10;0.10;;;13.40;90.90;;;;;;4938522;29;20027;-77
2023/11/08 13:48:23;;;;;;;0.10;0.10;;;13.50;90.90;;;;;;4957047;29;20111;-78
2023/11/08 13:50:48;;;;;;;0.10;0.10;;;13.50;90.90;;;;;;4954064;29;20046;-78
2023/11/08 13:53:14;;;;;;;0.10;0.10;;;13.50;91.00;;;;;;4955213;28;20047;-78
2023/11/08 13:55:40;;;;;;;0.10;0.10;;;13.50;91.00;;;;;;4956549;29;20031;-78
2023/11/08 13:58:06;;;;;;;0.10;0.10;;;13.50;90.90;;;;;;4955274;28;20095;-77
2023/11/08 14:00:32;;;;;;;0.10;0.10;;;13.50;91.00;;;;;;4955759;29;20015;-77
2023/11/08 14:02:59;;;;;;;0.10;0.10;;;13.50;90.90;;;;;;4954218;29;20086;-78
2023/11/08 14:05:24;;;;;;;0.10;0.10;;;13.50;91.00;;;;;;4950155;28;20035;-78
2023/11/08 14:07:50;;;;;;;0.00;0.00;;;13.50;90.90;;;;;;4956047;28;20031;-78
2023/11/08 14:10:15;;;;;;;0.00;0.00;;;13.50;91.30;;;;;;4959598;29;20027;-78
2023/11/08 14:12:41;;;;;;;0.10;0.10;;;13.40;91.20;;;;;;4960732;29;20062;-78
2023/11/08 14:15:12;;;;;;;0.10;0.10;;;13.50;91.30;;;;;;4960444;28;20486;-77
2023/11/08 14:17:41;;;;;;;0.10;0.10;;;13.50;91.40;;;;;;4961530;28;20030;-77
2023/11/08 14:20:10;;;;;;;0.10;0.10;;;13.50;91.30;;;;;;4960396;29;20121;-78
2023/11/08 14:22:37;;;;;;;0.10;0.10;;;13.50;91.20;;;;;;4944162;29;20035;-78
2023/11/08 14:25:04;;;;;;;0.08;0.08;;;13.60;91.10;;;;;;4961407;29;20039;-78
2023/11/08 14:27:29;;;;;;;0.10;0.10;;;13.60;91.00;;;;;;4943733;29;20027;-77
2023/11/08 14:29:55;;;;;;;0.00;0.00;;;13.60;91.10;;;;;;4961555;29;20035;-77
2023/11/08 14:32:25;;;;;;;0.00;0.00;;;13.50;91.00;;;;;;4959809;29;20454;-78
2023/11/08 14:34:50;;;;;;;0.10;0.10;;;13.50;91.10;;;;;;4960928;28;20114;-78
2023/11/08 14:37:16;;;;;;;0.10;0.10;;;13.50;91.10;;;;;;4959882;29;20058;-78
2023/11/08 14:39:43;;;;;;;0.10;0.10;;;13.50;91.20;;;;;;4959675;28;20042;-77
2023/11/08 14:42:09;;;;;;;0.10;0.10;;;13.50;91.20;;;;;;4958448;29;20038;-78
2023/11/08 14:44:34;;;;;;;0.08;0.08;;;13.50;91.20;;;;;;4960166;29;20029;-78
2023/11/08 14:47:01;;;;;;;0.10;0.10;;;13.50;91.20;;;;;;4960208;29;20106;-78
2023/11/08 14:49:27;;;;;;;0.10;0.10;;;13.50;91.20;;;;;;4958536;28;20035;-79
2023/11/08 14:51:53;;;;;;;0.10;0.10;;;13.50;91.20;;;;;;4960069;29;20020;-78
2023/11/08 14:54:19;;;;;;;0.00;0.00;;;13.50;91.30;;;;;;4954321;28;20027;-77
2023/11/08 14:56:48;;;;;;;0.10;0.10;;;13.50;91.40;;;;;;4959497;29;20149;-77
2023/11/08 14:59:14;;;;;;;0.00;0.00;;;13.50;91.30;;;;;;4957050;29;20376;-78
2023/11/08 15:01:40;;;;;;;0.10;0.10;;;13.50;91.40;;;;;;4959986;29;20461;-78
2023/11/08 15:04:08;;;;;;;0.10;0.10;;;13.50;91.40;;;;;;4959889;28;20070;-77
2023/11/08 15:06:37;;;;;;;0.10;0.10;;;13.50;91.20;;;;;;4958907;29;20110;-78
2023/11/08 15:09:07;;;;;;;0.10;0.10;;;13.60;91.20;;;;;;4959471;28;20043;-78
2023/11/08 15:11:34;;;;;;;0.00;0.00;;;13.50;91.20;;;;;;4959613;29;20027;-78
2023/11/08 15:14:01;;;;;;;0.00;0.00;;;13.50;91.30;;;;;;4959279;29;20059;-78
2023/11/08 15:16:27;;;;;;;0.10;0.10;;;13.50;91.30;;;;;;4940858;29;20027;-77
2023/11/08 15:18:55;;;;;;;0.10;0.10;;;13.50;91.20;;;;;;4958168;28;20034;-78
2023/11/08 15:21:22;;;;;;;0.00;0.00;;;13.50;91.40;;;;;;4959425;29;20079;-78
2023/11/08 15:23:56;;;;;;;0.10;0.10;;;13.40;91.40;;;;;;4954746;29;20027;-80
2023/11/08 15:26:22;;;;;;;0.00;0.00;;;13.40;91.40;;;;;;4959251;29;20020;-80
2023/11/08 15:28:47;;;;;;;0.00;0.00;;;13.40;91.60;;;;;;4959327;28;20449;-79
2023/11/08 15:31:13;;;;;;;0.00;0.00;;;13.40;91.50;;;;;;4959973;29;20066;-79
2023/11/08 15:33:38;;;;;;;0.00;0.00;;;13.30;91.40;;;;;;4959424;29;19918;-80
2023/11/08 15:36:04;;;;;;;0.10;0.10;;;13.30;91.60;;;;;;4959148;28;20042;-78
2023/11/08 15:38:30;;;;;;;0.05;0.05;;;13.30;91.60;;;;;;4941984;29;20110;-78
2023/11/08 15:40:56;;;;;;;0.10;0.10;;;13.20;91.70;;;;;;4959181;28;20035;-78
2023/11/08 15:43:23;;;;;;;0.00;0.00;;;13.30;91.80;;;;;;4960377;29;20015;-79
2023/11/08 15:45:50;;;;;;;0.00;0.00;;;13.30;91.80;;;;;;4951633;29;20080;-78
2023/11/08 15:48:16;;;;;;;0.10;0.10;;;13.30;91.70;;;;;;4956125;28;20053;-78
2023/11/08 15:50:42;;;;;;;0.00;0.00;;;13.30;91.70;;;;;;4960382;29;20413;-78
2023/11/08 15:53:08;;;;;;;0.00;0.00;;;13.30;91.70;;;;;;4940212;28;20058;-78
2023/11/08 15:55:33;;;;;;;0.10;0.10;;;13.20;91.80;;;;;;4958908;29;20114;-78
2023/11/08 15:57:59;;;;;;;0.00;0.00;;;13.20;91.90;;;;;;4958690;29;20031;-78
2023/11/08 16:00:25;;;;;;;0.10;0.10;;;13.20;91.90;;;;;;4959333;28;20572;-78
2023/11/08 16:02:50;;;;;;;0.00;0.00;;;13.20;91.90;;;;;;4941452;29;20059;-78
2023/11/08 16:05:16;;;;;;;0.10;0.10;;;13.20;91.90;;;;;;4955179;29;20445;-81
2023/11/08 16:07:42;;;;;;;0.10;0.10;;;13.20;91.90;;;;;;4956255;28;20020;-80
2023/11/08 16:10:08;;;;;;;0.00;0.00;;;13.20;91.90;;;;;;4959101;29;20024;-81
2023/11/08 16:12:34;;;;;;;0.00;0.00;;;13.20;91.90;;;;;;4957314;29;20473;-80
2023/11/08 16:15:00;;;;;;;0.00;0.00;;;13.20;92.10;;;;;;4959475;29;20023;-80
2023/11/08 16:17:26;;;;;;;0.03;0.03;;;13.20;92.10;;;;;;4954385;28;20032;-80
2023/11/08 16:19:52;;;;;;;0.00;0.00;;;13.20;92.10;;;;;;4958690;29;20109;-80
2023/11/08 16:22:20;;;;;;;0.00;0.00;;;13.20;92.10;;;;;;4954424;28;20027;-81
2023/11/08 16:24:45;;;;;;;0.10;0.10;;;13.20;92.10;;;;;;4956470;29;20059;-80
2023/11/08 16:27:11;;;;;;;0.10;0.10;;;13.20;92.10;;;;;;4953591;29;20031;-81
2023/11/08 16:29:38;;;;;;;0.10;0.10;;;13.20;92.20;;;;;;4941307;29;20035;-83
2023/11/08 16:32:04;;;;;;;0.10;0.10;;;13.10;92.20;;;;;;4958833;28;20031;-81
2023/11/08 16:34:30;;;;;;;0.00;0.00;;;13.10;92.30;;;;;;4956808;28;20488;-81
2023/11/08 16:36:56;;;;;;;0.10;0.10;;;13.10;92.40;;;;;;4931333;29;20031;-82
2023/11/08 16:39:24;;;;;;;0.10;0.10;;;13.10;92.30;;;;;;4955257;29;20027;-82
2023/11/08 16:41:50;;;;;;;0.10;0.10;;;13.10;92.40;;;;;;4957426;29;20020;-82
2023/11/08 16:44:15;;;;;;;0.03;0.03;;;13.10;92.40;;;;;;4958546;28;20098;-80
2023/11/08 16:46:41;;;;;;;0.10;0.10;;;13.20;92.40;;;;;;4948146;29;20031;-78
2023/11/08 16:49:07;;;;;;;0.10;0.10;;;13.20;92.40;;;;;;4955372;29;20031;-80
2023/11/08 16:51:33;;;;;;;0.00;0.00;;;13.20;92.40;;;;;;4952773;28;20027;-80
2023/11/08 16:53:59;;;;;;;0.10;0.10;;;13.20;92.50;;;;;;4959031;29;20382;-79
2023/11/08 16:56:25;;;;;;;0.10;0.10;;;13.20;92.50;;;;;;4955738;28;20034;-79
2023/11/08 16:58:54;;;;;;;0.10;0.10;;;13.20;92.50;;;;;;4958041;29;20027;-86
2023/11/08 17:01:23;;;;;;;0.10;0.10;;;13.20;92.40;;;;;;4954508;29;20027;-76
2023/11/08 17:03:49;;;;;;;0.10;0.10;;;13.20;92.50;;;;;;4957305;29;20541;-73
2023/11/08 17:06:18;;;;;;;0.00;0.00;;;13.20;92.50;;;;;;4954758;28;20027;-77
2023/11/08 17:08:44;;;;;;;0.00;0.00;;;13.20;92.50;;;;;;4937089;28;20031;-75
2023/11/08 17:11:12;;;;;;;0.10;0.10;;;13.20;92.60;;;;;;4955336;29;20071;-77
2023/11/08 17:13:38;;;;;;;0.10;0.10;;;13.20;92.60;;;;;;4956397;28;20122;-76
2023/11/08 17:16:04;;;;;;;0.00;0.00;;;13.30;92.50;;;;;;4956033;28;20054;-76
2023/11/08 17:18:32;;;;;;;0.10;0.10;;;13.30;92.50;;;;;;4957137;29;20087;-76
2023/11/08 17:20:58;;;;;;;0.10;0.10;;;13.30;92.60;;;;;;4957079;29;20051;-76
2023/11/08 17:23:24;;;;;;;0.10;0.10;;;13.30;92.60;;;;;;4957655;29;20042;-76
2023/11/08 17:25:50;;;;;;;0.05;0.05;;;13.30;92.60;;;;;;4939633;29;20566;-76
2023/11/08 17:28:16;;;;;;;0.00;0.00;;;13.30;92.60;;;;;;4955223;29;20035;-75
2023/11/08 17:30:41;;;;;;;0.10;0.10;;;13.30;92.60;;;;;;4956920;29;20165;-76
2023/11/08 17:33:14;;;;;;;0.10;0.10;;;13.30;92.60;;;;;;4955961;28;20126;-76
2023/11/08 17:35:40;;;;;;;0.10;0.10;;;13.30;92.60;;;;;;4957353;29;20023;-76
2023/11/08 17:38:05;;;;;;;0.10;0.10;;;13.30;92.70;;;;;;4953423;28;20046;-76
2023/11/08 17:40:31;;;;;;;0.10;0.10;;;13.30;92.60;;;;;;4957557;29;20030;-76
2023/11/08 17:42:57;;;;;;;0.10;0.10;;;13.30;92.70;;;;;;4954908;28;20090;-76
2023/11/08 17:45:23;;;;;;;0.03;0.03;;;13.40;92.70;;;;;;4953967;29;20099;-76
2023/11/08 17:47:49;;;;;;;0.03;0.03;;;13.40;92.70;;;;;;4954970;28;20027;-76
2023/11/08 17:50:15;;;;;;;0.10;0.10;;;13.40;92.60;;;;;;4939992;29;20054;-76
2023/11/08 17:52:42;;;;;;;0.10;0.10;;;13.40;92.70;;;;;;4955475;29;20027;-76
2023/11/08 17:55:07;;;;;;;0.10;0.10;;;13.40;92.80;;;;;;4955731;29;20025;-76
2023/11/08 17:57:33;;;;;;;0.10;0.10;;;13.50;92.80;;;;;;4955244;28;20441;-76
2023/11/08 17:59:59;;;;;;;0.10;0.10;;;13.50;92.70;;;;;;4955738;29;20066;-76
2023/11/08 18:02:25;;;;;;;0.10;0.10;;;13.50;92.80;;;;;;4939511;29;20035;-77
2023/11/08 18:04:51;;;;;;;0.10;0.10;;;13.50;92.80;;;;;;4956170;28;20027;-77
2023/11/08 18:07:17;;;;;;;0.00;0.00;;;13.50;92.80;;;;;;4956233;29;20506;-76
2023/11/08 18:09:43;;;;;;;0.10;0.10;;;13.50;92.80;;;;;;4957554;28;20038;-76
2023/11/08 18:12:09;;;;;;;0.10;0.10;;;13.50;92.80;;;;;;4956487;29;20028;-78
2023/11/08 18:14:35;;;;;;;0.10;0.10;;;13.50;92.60;;;;;;4956449;29;20035;-78
2023/11/08 18:17:03;;;;;;;0.10;0.10;;;13.50;92.40;;;;;;4951992;28;20042;-78